sensor_id;sensor_type;location;lat;lon;timestamp;P1;durP1;ratioP1;P2;durP2;ratioP2
39612;SDS011;25303;48.896;13.342;2024-02-26T00:02:09;1.35;;;0.50;;
39612;SDS011;25303;48.896;13.342;2024-02-26T00:12:13;1.13;;;0.70;;
39612;SDS011;25303;48.896;13.342;2024-02-26T00:22:16;0.73;;;0.40;;
39612;SDS011;25303;48.896;13.342;2024-02-26T00:32:21;0.75;;;0.40;;
39612;SDS011;25303;48.896;13.342;2024-02-26T00:42:24;0.70;;;0.30;;
39612;SDS011;25303;48.896;13.342;2024-02-26T00:52:28;1.42;;;0.40;;
39612;SDS011;25303;48.896;13.342;2024-02-26T01:02:31;0.52;;;0.32;;
39612;SDS011;25303;48.896;13.342;2024-02-26T01:12:35;0.40;;;0.40;;
39612;SDS011;25303;48.896;13.342;2024-02-26T01:22:39;0.40;;;0.30;;
39612;SDS011;25303;48.896;13.342;2024-02-26T01:32:43;0.93;;;0.40;;
39612;SDS011;25303;48.896;13.342;2024-02-26T01:42:47;0.50;;;0.30;;
39612;SDS011;25303;48.896;13.342;2024-02-26T01:52:52;0.20;;;0.20;;
39612;SDS011;25303;48.896;13.342;2024-02-26T02:02:56;0.30;;;0.20;;
39612;SDS011;25303;48.896;13.342;2024-02-26T02:13:01;0.35;;;0.20;;
39612;SDS011;25303;48.896;13.342;2024-02-26T02:23:05;0.52;;;0.30;;
39612;SDS011;25303;48.896;13.342;2024-02-26T02:33:08;0.10;;;0.10;;
39612;SDS011;25303;48.896;13.342;2024-02-26T02:43:15;0.57;;;0.20;;
39612;SDS011;25303;48.896;13.342;2024-02-26T02:53:18;0.55;;;0.20;;
39612;SDS011;25303;48.896;13.342;2024-02-26T03:03:22;0.20;;;0.10;;
39612;SDS011;25303;48.896;13.342;2024-02-26T03:13:26;0.88;;;0.20;;
39612;SDS011;25303;48.896;13.342;2024-02-26T03:23:30;0.10;;;0.10;;
39612;SDS011;25303;48.896;13.342;2024-02-26T03:33:33;0.15;;;0.10;;
39612;SDS011;25303;48.896;13.342;2024-02-26T03:43:39;0.13;;;0.10;;
39612;SDS011;25303;48.896;13.342;2024-02-26T03:53:42;0.10;;;0.10;;
39612;SDS011;25303;48.896;13.342;2024-02-26T04:03:46;0.90;;;0.20;;
39612;SDS011;25303;48.896;13.342;2024-02-26T04:13:49;0.20;;;0.10;;
39612;SDS011;25303;48.896;13.342;2024-02-26T04:23:55;0.13;;;0.10;;
39612;SDS011;25303;48.896;13.342;2024-02-26T04:33:58;0.98;;;0.13;;
39612;SDS011;25303;48.896;13.342;2024-02-26T04:44:03;0.13;;;0.10;;
39612;SDS011;25303;48.896;13.342;2024-02-26T04:54:06;0.30;;;0.10;;
39612;SDS011;25303;48.896;13.342;2024-02-26T05:04:10;0.45;;;0.10;;
39612;SDS011;25303;48.896;13.342;2024-02-26T05:14:14;0.52;;;0.10;;
39612;SDS011;25303;48.896;13.342;2024-02-26T05:24:18;0.20;;;0.10;;
39612;SDS011;25303;48.896;13.342;2024-02-26T05:34:24;0.10;;;0.10;;
39612;SDS011;25303;48.896;13.342;2024-02-26T05:44:29;0.10;;;0.10;;
39612;SDS011;25303;48.896;13.342;2024-02-26T05:54:32;0.00;;;0.00;;
39612;SDS011;25303;48.896;13.342;2024-02-26T06:04:36;0.10;;;0.10;;
39612;SDS011;25303;48.896;13.342;2024-02-26T06:14:41;0.17;;;0.10;;
39612;SDS011;25303;48.896;13.342;2024-02-26T06:24:45;0.57;;;0.10;;
39612;SDS011;25303;48.896;13.342;2024-02-26T06:34:48;0.20;;;0.10;;
39612;SDS011;25303;48.896;13.342;2024-02-26T06:44:53;0.15;;;0.10;;
39612;SDS011;25303;48.896;13.342;2024-02-26T06:54:56;3.65;;;1.50;;
39612;SDS011;25303;48.896;13.342;2024-02-26T07:05:00;0.60;;;0.40;;
39612;SDS011;25303;48.896;13.342;2024-02-26T07:15:05;0.25;;;0.10;;
39612;SDS011;25303;48.896;13.342;2024-02-26T07:25:11;0.10;;;0.10;;
39612;SDS011;25303;48.896;13.342;2024-02-26T07:35:15;0.10;;;0.10;;
39612;SDS011;25303;48.896;13.342;2024-02-26T07:45:20;0.20;;;0.10;;
39612;SDS011;25303;48.896;13.342;2024-02-26T07:55:23;0.47;;;0.30;;
39612;SDS011;25303;48.896;13.342;2024-02-26T08:05:28;0.68;;;0.40;;
39612;SDS011;25303;48.896;13.342;2024-02-26T08:15:32;0.68;;;0.32;;
39612;SDS011;25303;48.896;13.342;2024-02-26T08:25:37;1.92;;;0.50;;
39612;SDS011;25303;48.896;13.342;2024-02-26T08:35:40;0.73;;;0.30;;
39612;SDS011;25303;48.896;13.342;2024-02-26T08:45:45;1.30;;;0.60;;
39612;SDS011;25303;48.896;13.342;2024-02-26T08:55:48;1.17;;;0.30;;
39612;SDS011;25303;48.896;13.342;2024-02-26T09:05:52;0.57;;;0.30;;
39612;SDS011;25303;48.896;13.342;2024-02-26T09:15:55;0.50;;;0.30;;
39612;SDS011;25303;48.896;13.342;2024-02-26T09:26:00;0.22;;;0.20;;
39612;SDS011;25303;48.896;13.342;2024-02-26T09:36:03;0.50;;;0.20;;
39612;SDS011;25303;48.896;13.342;2024-02-26T09:46:09;0.68;;;0.30;;
39612;SDS011;25303;48.896;13.342;2024-02-26T09:56:12;0.20;;;0.20;;
39612;SDS011;25303;48.896;13.342;2024-02-26T10:06:17;0.45;;;0.20;;
39612;SDS011;25303;48.896;13.342;2024-02-26T10:16:20;0.45;;;0.20;;
39612;SDS011;25303;48.896;13.342;2024-02-26T10:26:25;0.10;;;0.10;;
39612;SDS011;25303;48.896;13.342;2024-02-26T10:36:29;0.55;;;0.40;;
39612;SDS011;25303;48.896;13.342;2024-02-26T10:46:50;0.40;;;0.30;;
39612;SDS011;25303;48.896;13.342;2024-02-26T10:56:53;1.27;;;0.50;;
39612;SDS011;25303;48.896;13.342;2024-02-26T11:07:00;0.77;;;0.43;;
39612;SDS011;25303;48.896;13.342;2024-02-26T11:17:03;1.17;;;0.47;;
39612;SDS011;25303;48.896;13.342;2024-02-26T11:27:10;2.17;;;0.43;;
39612;SDS011;25303;48.896;13.342;2024-02-26T11:37:15;0.30;;;0.30;;
39612;SDS011;25303;48.896;13.342;2024-02-26T11:47:21;0.50;;;0.20;;
39612;SDS011;25303;48.896;13.342;2024-02-26T11:57:25;0.28;;;0.20;;
39612;SDS011;25303;48.896;13.342;2024-02-26T12:07:32;0.28;;;0.25;;
39612;SDS011;25303;48.896;13.342;2024-02-26T12:17:37;0.10;;;0.10;;
39612;SDS011;25303;48.896;13.342;2024-02-26T12:27:42;1.10;;;0.60;;
39612;SDS011;25303;48.896;13.342;2024-02-26T12:37:45;0.77;;;0.40;;
39612;SDS011;25303;48.896;13.342;2024-02-26T12:47:50;0.28;;;0.20;;
39612;SDS011;25303;48.896;13.342;2024-02-26T12:57:53;0.10;;;0.10;;
39612;SDS011;25303;48.896;13.342;2024-02-26T13:07:58;0.40;;;0.20;;
39612;SDS011;25303;48.896;13.342;2024-02-26T13:18:08;0.30;;;0.20;;
39612;SDS011;25303;48.896;13.342;2024-02-26T13:28:14;1.10;;;0.20;;
39612;SDS011;25303;48.896;13.342;2024-02-26T13:38:19;0.35;;;0.10;;
39612;SDS011;25303;48.896;13.342;2024-02-26T13:48:23;0.25;;;0.20;;
39612;SDS011;25303;48.896;13.342;2024-02-26T13:58:27;0.40;;;0.30;;
39612;SDS011;25303;48.896;13.342;2024-02-26T14:08:32;0.32;;;0.20;;
39612;SDS011;25303;48.896;13.342;2024-02-26T14:18:35;0.57;;;0.20;;
39612;SDS011;25303;48.896;13.342;2024-02-26T14:28:40;0.20;;;0.20;;
39612;SDS011;25303;48.896;13.342;2024-02-26T14:38:43;2.78;;;1.58;;
39612;SDS011;25303;48.896;13.342;2024-02-26T14:48:47;7.95;;;3.80;;
39612;SDS011;25303;48.896;13.342;2024-02-26T14:58:50;1.95;;;1.02;;
39612;SDS011;25303;48.896;13.342;2024-02-26T15:08:55;2.50;;;1.17;;
39612;SDS011;25303;48.896;13.342;2024-02-26T15:18:58;1.92;;;0.80;;
39612;SDS011;25303;48.896;13.342;2024-02-26T15:29:02;1.55;;;1.10;;
39612;SDS011;25303;48.896;13.342;2024-02-26T15:39:05;1.73;;;0.93;;
39612;SDS011;25303;48.896;13.342;2024-02-26T15:49:10;0.70;;;0.60;;
39612;SDS011;25303;48.896;13.342;2024-02-26T15:59:17;1.48;;;0.70;;
39612;SDS011;25303;48.896;13.342;2024-02-26T16:09:22;4.05;;;1.73;;
39612;SDS011;25303;48.896;13.342;2024-02-26T16:19:25;3.80;;;1.75;;
39612;SDS011;25303;48.896;13.342;2024-02-26T16:29:30;10.68;;;3.92;;
39612;SDS011;25303;48.896;13.342;2024-02-26T16:39:35;5.75;;;2.65;;
39612;SDS011;25303;48.896;13.342;2024-02-26T16:49:40;2.15;;;1.00;;
39612;SDS011;25303;48.896;13.342;2024-02-26T16:59:43;1.70;;;0.90;;
39612;SDS011;25303;48.896;13.342;2024-02-26T17:09:47;1.92;;;0.90;;
39612;SDS011;25303;48.896;13.342;2024-02-26T17:19:50;2.63;;;1.08;;
39612;SDS011;25303;48.896;13.342;2024-02-26T17:29:55;1.60;;;0.85;;
39612;SDS011;25303;48.896;13.342;2024-02-26T17:39:58;2.45;;;1.25;;
39612;SDS011;25303;48.896;13.342;2024-02-26T17:50:02;3.78;;;1.80;;
39612;SDS011;25303;48.896;13.342;2024-02-26T18:00:06;3.47;;;1.40;;
39612;SDS011;25303;48.896;13.342;2024-02-26T18:10:12;2.55;;;1.42;;
39612;SDS011;25303;48.896;13.342;2024-02-26T18:20:15;2.70;;;1.40;;
39612;SDS011;25303;48.896;13.342;2024-02-26T18:30:20;2.97;;;1.30;;
39612;SDS011;25303;48.896;13.342;2024-02-26T18:40:23;2.13;;;1.20;;
39612;SDS011;25303;48.896;13.342;2024-02-26T18:50:27;2.75;;;1.50;;
39612;SDS011;25303;48.896;13.342;2024-02-26T19:00:30;3.05;;;1.45;;
39612;SDS011;25303;48.896;13.342;2024-02-26T19:10:35;2.47;;;1.13;;
39612;SDS011;25303;48.896;13.342;2024-02-26T19:20:39;3.40;;;1.20;;
39612;SDS011;25303;48.896;13.342;2024-02-26T19:30:43;2.05;;;1.20;;
39612;SDS011;25303;48.896;13.342;2024-02-26T19:40:46;2.15;;;1.10;;
39612;SDS011;25303;48.896;13.342;2024-02-26T19:50:51;2.20;;;1.13;;
39612;SDS011;25303;48.896;13.342;2024-02-26T20:00:56;1.63;;;0.85;;
39612;SDS011;25303;48.896;13.342;2024-02-26T20:11:00;2.45;;;1.20;;
39612;SDS011;25303;48.896;13.342;2024-02-26T20:21:04;1.48;;;0.73;;
39612;SDS011;25303;48.896;13.342;2024-02-26T20:31:08;1.45;;;0.47;;
39612;SDS011;25303;48.896;13.342;2024-02-26T20:41:11;0.93;;;0.50;;
39612;SDS011;25303;48.896;13.342;2024-02-26T20:51:18;0.47;;;0.35;;
39612;SDS011;25303;48.896;13.342;2024-02-26T21:01:21;0.40;;;0.30;;
39612;SDS011;25303;48.896;13.342;2024-02-26T21:11:26;0.63;;;0.40;;
39612;SDS011;25303;48.896;13.342;2024-02-26T21:21:30;0.32;;;0.20;;
39612;SDS011;25303;48.896;13.342;2024-02-26T21:31:36;1.05;;;0.40;;
39612;SDS011;25303;48.896;13.342;2024-02-26T21:41:39;1.25;;;0.68;;
39612;SDS011;25303;48.896;13.342;2024-02-26T21:51:44;0.95;;;0.55;;
39612;SDS011;25303;48.896;13.342;2024-02-26T22:01:49;1.27;;;0.75;;
39612;SDS011;25303;48.896;13.342;2024-02-26T22:11:53;2.58;;;0.90;;
39612;SDS011;25303;48.896;13.342;2024-02-26T22:21:56;1.13;;;0.63;;
39612;SDS011;25303;48.896;13.342;2024-02-26T22:32:00;1.67;;;0.82;;
39612;SDS011;25303;48.896;13.342;2024-02-26T22:42:04;1.65;;;0.70;;
39612;SDS011;25303;48.896;13.342;2024-02-26T22:52:09;2.42;;;1.10;;
39612;SDS011;25303;48.896;13.342;2024-02-26T23:02:12;3.88;;;1.40;;
39612;SDS011;25303;48.896;13.342;2024-02-26T23:12:17;1.70;;;0.70;;
39612;SDS011;25303;48.896;13.342;2024-02-26T23:22:20;1.00;;;0.50;;
39612;SDS011;25303;48.896;13.342;2024-02-26T23:32:25;0.82;;;0.60;;
39612;SDS011;25303;48.896;13.342;2024-02-26T23:42:28;0.75;;;0.40;;
39612;SDS011;25303;48.896;13.342;2024-02-26T23:52:32;0.80;;;0.40;;
